Home > Products > Valid Products > MTR

000
SAUS44 KSHV 230757
MTRAQV
METAR KAQV 230756Z AUTO 00000KT 10SM CLR 19/17 A3012 RMK AO2 SLP198
T01940172





000
SAUS44 KSHV 230755
MTRBKB
METAR KBKB 230754Z AUTO 00000KT 10SM CLR 21/17 A3012 RMK AO2 SLP225
T02060172





000
SAUS44 KSHV 230657
MTRAQV
METAR KAQV 230656Z AUTO 00000KT 9SM CLR 19/18 A3013 RMK AO2 SLP202
T01940178





000
SAUS44 KSHV 230655
MTRBKB
METAR KBKB 230654Z AUTO VRB03KT 10SM SCT023 21/18 A3012 RMK AO2
SLP226 T02110178





000
SAUS44 KSHV 230557
MTRAQV
METAR KAQV 230556Z AUTO 00000KT 9SM CLR 19/18 A3014 RMK AO2 SLP206
T01940178 10239 20194 402560133 58006





000
SAUS44 KSHV 230557
MTRAQV
METAR KAQV 230556Z AUTO 00000KT 9SM CLR 19/18 A3014 RMK AO2 SLP206
T01940178 10239 20194 402560133 58006





000
SAUS44 KSHV 230555
MTRBKB
METAR KBKB 230554Z AUTO 00000KT 10SM CLR 21/18 A3014 RMK AO2 SLP231
T02060178 10250 20200 402720144 58002





000
SAUS44 KSHV 230555
MTRBKB
METAR KBKB 230554Z AUTO 00000KT 10SM CLR 21/18 A3014 RMK AO2 SLP231
T02060178 10250 20200 402720144 58002





000
SAUS44 KSHV 230458
MTRAQV
METAR KAQV 230456Z AUTO VRB03KT 10SM CLR 20/18 A3015 RMK AO2 SLP209
T02000178





000
SAUS44 KSHV 230458
MTRAQV
METAR KAQV 230456Z AUTO VRB03KT 10SM CLR 20/18 A3015 RMK AO2 SLP209
T02000178





000
SAUS44 KSHV 230455
MTRBKB
METAR KBKB 230454Z AUTO 00000KT 10SM CLR 21/18 A3015 RMK AO2 SLP236
T02060178





000
SAUS44 KSHV 230400 COR
MTRAQV
METAR KAQV 230356Z AUTO 00000KT 10SM CLR 21/18 A3016 RMK AO2 SLP212
T02060178





000
SAUS44 KSHV 230400 COR
MTRAQV
METAR KAQV 230356Z AUTO 00000KT 10SM CLR 21/18 A3016 RMK AO2 SLP212
T02060178





000
SAUS44 KSHV 230359 COR
MTRAQV
METAR KAQV 230356Z AUTO 00000KT 10SM CLR 21/18 A3016 RMK AO2 SLP212
T02060178





000
SAUS44 KSHV 230358 COR
MTRAQV
METAR KAQV 230356Z AUTO 00000KT 10SM CLR 21/18 A3016 RMK AO2 SLP212
T02060178





000
SAUS44 KSHV 230357
MTRAQV
METAR KAQV 230356Z AUTO 00000KT 10SM CLR 21/18 A3016 RMK AO2 SLP212
T02060178





000
SAUS44 KSHV 230357
MTRAQV
METAR KAQV 230356Z AUTO 00000KT 10SM CLR 21/18 A3016 RMK AO2 SLP212
T02060178





000
SAUS44 KSHV 230356
MTRBKB
METAR KBKB 230354Z AUTO 00000KT 10SM CLR 21/18 A3015 RMK AO2 SLP236
T02110178





000
SAUS44 KSHV 230314
MTRBKB
SPECI KBKB 230313Z AUTO 00000KT 10SM SCT024 22/18 A3015 RMK AO2
T02170178





000
SAUS44 KSHV 230257
MTRAQV
METAR KAQV 230256Z AUTO 00000KT 10SM CLR 21/18 A3016 RMK AO2 SLP212
T02060183 53011





000
SAUS44 KSHV 230257
MTRAQV
METAR KAQV 230256Z AUTO 00000KT 10SM CLR 21/18 A3016 RMK AO2 SLP212
T02060183 53011





000
SAUS44 KSHV 230255
MTRBKB
METAR KBKB 230254Z AUTO 00000KT 10SM OVC024 22/18 A3014 RMK AO2
SLP235 T02220178 51009





000
SAUS44 KSHV 230255
MTRBKB
METAR KBKB 230254Z AUTO 00000KT 10SM OVC024 22/18 A3014 RMK AO2
SLP235 T02220178 51009





000
SAUS44 KSHV 230157
MTRAQV
METAR KAQV 230156Z AUTO 00000KT 10SM CLR 21/19 A3015 RMK AO2 SLP208
T02110189





000
SAUS44 KSHV 230155
MTRBKB
METAR KBKB 230154Z AUTO 00000KT 10SM OVC025 22/18 A3014 RMK AO2
SLP233 T02220178





000
SAUS44 KSHV 230155
MTRBKB
METAR KBKB 230154Z AUTO 00000KT 10SM OVC025 22/18 A3014 RMK AO2
SLP233 T02220178





000
SAUS44 KSHV 230057
MTRAQV
METAR KAQV 230056Z AUTO 00000KT 10SM CLR 22/19 A3014 RMK AO2 SLP204
T02220189





000
SAUS44 KSHV 230057
MTRAQV
METAR KAQV 230056Z AUTO 00000KT 10SM CLR 22/19 A3014 RMK AO2 SLP204
T02220189





000
SAUS44 KSHV 230055
MTRBKB
METAR KBKB 230054Z AUTO VRB04KT 10SM OVC023 23/18 A3013 RMK AO2
SLP230 T02280183





000
SAUS44 KSHV 230055
MTRBKB
METAR KBKB 230054Z AUTO VRB04KT 10SM OVC023 23/18 A3013 RMK AO2
SLP230 T02280183





000
SAUS44 KSHV 230005
MTRBKB
SPECI KBKB 230004Z AUTO 00000KT 10SM BKN022 24/18 A3012 RMK AO2
T02440183





000
SAUS44 KSHV 230005
MTRBKB
SPECI KBKB 230004Z AUTO 00000KT 10SM BKN022 24/18 A3012 RMK AO2
T02440183





000
SAUS44 KSHV 222357
MTRAQV
METAR KAQV 222356Z AUTO VRB03KT 10SM CLR 24/18 A3013 RMK AO2 SLP201
T02390183 10256 20194 58003





000
SAUS44 KSHV 222357
MTRAQV
METAR KAQV 222356Z AUTO VRB03KT 10SM CLR 24/18 A3013 RMK AO2 SLP201
T02390183 10256 20194 58003





000
SAUS44 KSHV 222356
MTRBKB
METAR KBKB 222354Z AUTO VRB04KT 10SM SCT020 25/19 A3012 RMK AO2
SLP226 T02500189 10272 20217 50001





000
SAUS44 KSHV 222356
MTRBKB
METAR KBKB 222354Z AUTO VRB04KT 10SM SCT020 25/19 A3012 RMK AO2
SLP226 T02500189 10272 20217 50001





000
SAUS44 KSHV 222349
MTRBKB
SPECI KBKB 222347Z AUTO 09003KT 10SM SCT023 24/19 A3012 RMK AO2
T02440189





000
SAUS44 KSHV 222349
MTRBKB
SPECI KBKB 222347Z AUTO 09003KT 10SM SCT023 24/19 A3012 RMK AO2
T02440189





000
SAUS44 KSHV 222325
MTRBKB
SPECI KBKB 222323Z AUTO VRB03KT 10SM BKN025 26/19 A3012 RMK AO2
T02610189





000
SAUS44 KSHV 222325
MTRBKB
SPECI KBKB 222323Z AUTO VRB03KT 10SM BKN025 26/19 A3012 RMK AO2
T02610189





000
SAUS44 KSHV 222306
MTRBKB
SPECI KBKB 222305Z AUTO VRB03KT 10SM SCT026 26/18 A3012 RMK AO2
T02560183





000
SAUS44 KSHV 222306
MTRBKB
SPECI KBKB 222305Z AUTO VRB03KT 10SM SCT026 26/18 A3012 RMK AO2
T02560183





000
SAUS44 KSHV 222257
MTRAQV
METAR KAQV 222256Z AUTO VRB04KT 10SM FEW021 25/18 A3013 RMK AO2
SLP202 T02500178





000
SAUS44 KSHV 222255
MTRBKB
METAR KBKB 222254Z AUTO VRB04KT 10SM BKN026 27/18 A3012 RMK AO2
SLP226 T02670183





000
SAUS44 KSHV 222247
MTRBKB
SPECI KBKB 222246Z AUTO VRB04KT 10SM SCT024 26/19 A3012 RMK AO2
T02610189





000
SAUS44 KSHV 222247
MTRBKB
SPECI KBKB 222246Z AUTO VRB04KT 10SM SCT024 26/19 A3012 RMK AO2
T02610189





000
SAUS44 KSHV 222224
MTRBKB
SPECI KBKB 222222Z AUTO VRB03KT 10SM BKN024 27/18 A3013 RMK AO2
T02670183





000
SAUS44 KSHV 222224
MTRBKB
SPECI KBKB 222222Z AUTO VRB03KT 10SM BKN024 27/18 A3013 RMK AO2
T02670183





000
SAUS44 KSHV 222223
MTRAQV
SPECI KAQV 222222Z AUTO 14004KT 10SM SCT022 24/18 A3014 RMK AO2
T02440178





000
SAUS44 KSHV 222215
MTRAQV
SPECI KAQV 222214Z AUTO 09003KT 10SM BKN022 24/18 A3014 RMK AO2
T02440178





000
SAUS44 KSHV 222215
MTRAQV
SPECI KAQV 222214Z AUTO 09003KT 10SM BKN022 24/18 A3014 RMK AO2
T02440178





000
SAUS44 KSHV 222157
MTRAQV
METAR KAQV 222156Z AUTO 06004KT 10SM FEW021 25/18 A3014 RMK AO2
SLP204 T02500178





000
SAUS44 KSHV 222155
MTRBKB
METAR KBKB 222154Z AUTO VRB03KT 10SM SCT024 27/19 A3012 RMK AO2
SLP225 T02720189





000
SAUS44 KSHV 222132
MTRBKB
SPECI KBKB 222131Z AUTO VRB03KT 10SM SCT023 26/18 A3012 RMK AO2
T02610178





000
SAUS44 KSHV 222118
MTRBKB
SPECI KBKB 222117Z AUTO 02004KT 10SM BKN023 26/18 A3012 RMK AO2
T02610178





000
SAUS44 KSHV 222057
MTRAQV
METAR KAQV 222056Z AUTO VRB04KT 10SM CLR 24/17 A3014 RMK AO2 SLP204
T02390172 56014





000
SAUS44 KSHV 222055
MTRBKB
METAR KBKB 222054Z AUTO VRB04KT 10SM SCT023 26/18 A3012 RMK AO2
SLP225 T02610178 58015





000
SAUS44 KSHV 222027
MTRBKB
SPECI KBKB 222025Z AUTO VRB04KT 10SM SCT021 26/18 A3012 RMK AO2
T02610178





000
SAUS44 KSHV 222027
MTRBKB
SPECI KBKB 222025Z AUTO VRB04KT 10SM SCT021 26/18 A3012 RMK AO2
T02610178





000
SAUS44 KSHV 222009
MTRAQV
SPECI KAQV 222007Z AUTO VRB05KT 10SM SCT018 23/17 A3015 RMK AO2
T02330167





000
SAUS44 KSHV 221957
MTRAQV
METAR KAQV 221956Z AUTO 06006KT 10SM BKN018 23/17 A3015 RMK AO2
SLP209 T02280167





000
SAUS44 KSHV 221955
MTRBKB
METAR KBKB 221954Z AUTO 00000KT 10SM BKN020 25/17 A3014 RMK AO2
SLP233 T02500172





000
SAUS44 KSHV 221955
MTRBKB
METAR KBKB 221954Z AUTO 00000KT 10SM BKN020 25/17 A3014 RMK AO2
SLP233 T02500172





000
SAUS44 KSHV 221857
MTRAQV
METAR KAQV 221856Z AUTO 07004KT 10SM OVC016 22/16 A3016 RMK AO2
SLP213 T02170161





000
SAUS44 KSHV 221857
MTRAQV
METAR KAQV 221856Z AUTO 07004KT 10SM OVC016 22/16 A3016 RMK AO2
SLP213 T02170161





000
SAUS44 KSHV 221855
MTRBKB
METAR KBKB 221854Z AUTO 00000KT 10SM OVC017 24/16 A3015 RMK AO2
SLP237 T02390161





000
SAUS44 KSHV 221855
MTRBKB
METAR KBKB 221854Z AUTO 00000KT 10SM OVC017 24/16 A3015 RMK AO2
SLP237 T02390161





000
SAUS44 KSHV 221851
MTRAQV
SPECI KAQV 221849Z AUTO 00000KT 10SM OVC015 21/16 A3017 RMK AO2
T02110156





000
SAUS44 KSHV 221851
MTRAQV
SPECI KAQV 221849Z AUTO 00000KT 10SM OVC015 21/16 A3017 RMK AO2
T02110156





000
SAUS44 KSHV 221809
MTRBKB
SPECI KBKB 221808Z AUTO 03004KT 10SM OVC016 22/16 A3016 RMK AO2
T02220156





000
SAUS44 KSHV 221809
MTRBKB
SPECI KBKB 221808Z AUTO 03004KT 10SM OVC016 22/16 A3016 RMK AO2
T02220156





000
SAUS44 KSHV 221757
MTRAQV
METAR KAQV 221756Z AUTO 10SM OVC012 19/15 A3018 RMK AO2 SLP218
T01940150 10194 20133 58006





000
SAUS44 KSHV 221757
MTRAQV
METAR KAQV 221756Z AUTO 10SM OVC012 19/15 A3018 RMK AO2 SLP218
T01940150 10194 20133 58006





000
SAUS44 KSHV 221755
MTRBKB
METAR KBKB 221754Z AUTO VRB05KT 10SM OVC014 21/15 A3016 RMK AO2
SLP241 T02110150 10211 20144 58009





000
SAUS44 KSHV 221755
MTRBKB
METAR KBKB 221754Z AUTO VRB05KT 10SM OVC014 21/15 A3016 RMK AO2
SLP241 T02110150 10211 20144 58009





000
SAUS44 KSHV 221658
MTRAQV
METAR KAQV 221656Z AUTO 06003KT 10SM OVC010 18/14 A3019 RMK AO2
SLP222 T01830139





000
SAUS44 KSHV 221658
MTRAQV
METAR KAQV 221656Z AUTO 06003KT 10SM OVC010 18/14 A3019 RMK AO2
SLP222 T01830139





000
SAUS44 KSHV 221656
MTRBKB
METAR KBKB 221654Z AUTO VRB03KT 10SM OVC010 19/14 A3018 RMK AO2
SLP246 T01940139





000
SAUS44 KSHV 221656
MTRBKB
METAR KBKB 221654Z AUTO VRB03KT 10SM OVC010 19/14 A3018 RMK AO2
SLP246 T01940139





000
SAUS44 KSHV 221650
MTRAQV
SPECI KAQV 221649Z AUTO 01006KT 10SM OVC010 18/14 A3019 RMK AO2
T01780139





000
SAUS44 KSHV 221647
MTRBKB
SPECI KBKB 221646Z AUTO VRB04KT 10SM OVC010 19/14 A3018 RMK AO2
T01890139





000
SAUS44 KSHV 221647
MTRBKB
SPECI KBKB 221646Z AUTO VRB04KT 10SM OVC010 19/14 A3018 RMK AO2
T01890139





000
SAUS44 KSHV 221557
MTRAQV
METAR KAQV 221556Z AUTO 03007KT 10SM OVC009 17/13 A3019 RMK AO2
SLP224 T01720133





000
SAUS44 KSHV 221555
MTRBKB
METAR KBKB 221554Z AUTO VRB05KT 10SM OVC007 18/14 A3018 RMK AO2
SLP248 T01780139





000
SAUS44 KSHV 221457
MTRAQV
METAR KAQV 221456Z AUTO 03004KT 9SM OVC006 16/13 A3020 RMK AO2
SLP225 T01560128 50008





000
SAUS44 KSHV 221455
MTRBKB
METAR KBKB 221454Z AUTO 00000KT 4SM HZ OVC006 17/13 A3019 RMK AO2
SLP249 T01670133 53009





000
SAUS44 KSHV 221357
MTRAQV
METAR KAQV 221356Z AUTO VRB04KT 8SM OVC005 14/12 A3020 RMK AO2
SLP226 T01440122





000
SAUS44 KSHV 221355
MTRBKB
METAR KBKB 221354Z AUTO 03004KT 3SM HZ OVC006 16/13 A3018 RMK AO2
SLP246 T01560128





000
SAUS44 KSHV 221257
MTRAQV
METAR KAQV 221256Z AUTO VRB05KT 10SM OVC007 14/12 A3019 RMK AO2
SLP221 T01390117





000
SAUS44 KSHV 221255
MTRBKB
METAR KBKB 221254Z AUTO VRB03KT 10SM OVC006 15/12 A3017 RMK AO2
SLP242 T01500117





000
SAUS44 KSHV 221157
MTRAQV
METAR KAQV 221156Z AUTO 06004KT 10SM OVC007 13/11 A3017 RMK AO2
SLP216 70085 T01330111 10150 20133 51012





000
SAUS44 KSHV 221157
MTRAQV
METAR KAQV 221156Z AUTO 06004KT 10SM OVC007 13/11 A3017 RMK AO2
SLP216 70085 T01330111 10150 20133 51012





000
SAUS44 KSHV 221156
MTRBKB
METAR KBKB 221154Z AUTO VRB04KT 10SM OVC007 14/12 A3016 RMK AO2
SLP240 70040 T01440117 10172 20144 50009





000
SAUS44 KSHV 221156
MTRBKB
METAR KBKB 221154Z AUTO VRB04KT 10SM OVC007 14/12 A3016 RMK AO2
SLP240 70040 T01440117 10172 20144 50009





000
SAUS44 KSHV 221107
MTRAQV
SPECI KAQV 221106Z AUTO 05004KT 10SM OVC009 14/11 A3016 RMK AO2
T01390111





000
SAUS44 KSHV 221057
MTRAQV
METAR KAQV 221056Z AUTO 05005KT 10SM OVC010 14/11 A3016 RMK AO2
SLP211 T01390111





000
SAUS44 KSHV 221055
MTRBKB
METAR KBKB 221054Z AUTO 05004KT 10SM OVC009 15/11 A3016 RMK AO2
SLP241 T01500111





000
SAUS44 KSHV 221010
MTRBKB
SPECI KBKB 221009Z AUTO 00000KT 10SM BKN012 14/11 A3015 RMK AO2
T01440111





000
SAUS44 KSHV 221010
MTRBKB
SPECI KBKB 221009Z AUTO 00000KT 10SM BKN012 14/11 A3015 RMK AO2
T01440111





000
SAUS44 KSHV 220957
MTRAQV
METAR KAQV 220956Z AUTO 03005KT 10SM OVC012 14/12 A3016 RMK AO2
SLP211 T01390117





000
SAUS44 KSHV 220955
MTRBKB
METAR KBKB 220954Z AUTO VRB03KT 10SM FEW012 14/11 A3014 RMK AO2
SLP233 T01440111





000
SAUS44 KSHV 220928
MTRAQV
SPECI KAQV 220927Z AUTO 04003KT 10SM BKN013 BKN070 14/12 A3015 RMK
AO2 T01390117





000
SAUS44 KSHV 220928
MTRAQV
SPECI KAQV 220927Z AUTO 04003KT 10SM BKN013 BKN070 14/12 A3015 RMK
AO2 T01390117





000
SAUS44 KSHV 220927
MTRBKB
SPECI KBKB 220925Z AUTO VRB03KT 10SM SCT013 14/11 A3014 RMK AO2
T01440111





000
SAUS44 KSHV 220927
MTRBKB
SPECI KBKB 220925Z AUTO VRB03KT 10SM SCT013 14/11 A3014 RMK AO2
T01440111





000
SAUS44 KSHV 220920
MTRAQV
SPECI KAQV 220918Z AUTO 03004KT 10SM SCT014 BKN070 14/12 A3015 RMK
AO2 T01390117





000
SAUS44 KSHV 220857
MTRAQV
METAR KAQV 220856Z AUTO VRB04KT 10SM BKN014 14/12 A3014 RMK AO2
SLP205 T01390117 53000





000
SAUS44 KSHV 220857
MTRAQV
METAR KAQV 220856Z AUTO VRB04KT 10SM BKN014 14/12 A3014 RMK AO2
SLP205 T01390117 53000





000
SAUS44 KSHV 220855
MTRBKB
METAR KBKB 220854Z AUTO VRB03KT 10SM OVC010 16/12 A3013 RMK AO2
SLP231 T01560117 51007





000
SAUS44 KSHV 220855
MTRBKB
METAR KBKB 220854Z AUTO VRB03KT 10SM OVC010 16/12 A3013 RMK AO2
SLP231 T01560117 51007





000
SAUS44 KSHV 220852
MTRBKB
SPECI KBKB 220851Z AUTO VRB03KT 10SM OVC010 16/12 A3013 RMK AO2





000
SAUS44 KSHV 220838
MTRAQV
SPECI KAQV 220837Z AUTO 03003KT 10SM BKN014 BKN070 14/12 A3015 RMK
AO2 T01440117





000
SAUS44 KSHV 220757
MTRAQV
METAR KAQV 220756Z AUTO VRB03KT 10SM SCT012 OVC070 14/12 A3013 RMK
AO2 SLP202 T01440117





000
SAUS44 KSHV 220757
MTRAQV
METAR KAQV 220756Z AUTO VRB03KT 10SM SCT012 OVC070 14/12 A3013 RMK
AO2 SLP202 T01440117





000
SAUS44 KSHV 220755
MTRBKB
METAR KBKB 220754Z AUTO VRB04KT 10SM OVC008 16/13 A3012 RMK AO2
SLP225 T01610128





000
SAUS44 KSHV 220750
MTRAQV
SPECI KAQV 220748Z AUTO 00000KT 10SM SCT012 OVC070 14/12 A3013 RMK
AO2 T01440117





000
SAUS44 KSHV 220750
MTRAQV
SPECI KAQV 220748Z AUTO 00000KT 10SM SCT012 OVC070 14/12 A3013 RMK
AO2 T01440117





000
SAUS44 KSHV 220729
MTRBKB
SPECI KBKB 220728Z AUTO 03003KT 10SM OVC008 17/13 A3011 RMK AO2
T01670133





000
SAUS44 KSHV 220702
MTRBKB
SPECI KBKB 220701Z AUTO VRB03KT 10SM OVC010 17/13 A3011 RMK AO2 CIG
007V012 T01670133





000
SAUS44 KSHV 220702
MTRBKB
SPECI KBKB 220701Z AUTO VRB03KT 10SM OVC010 17/13 A3011 RMK AO2 CIG
007V012 T01670133





000
SAUS44 KSHV 220658
MTRAQV
METAR KAQV 220656Z AUTO 04007KT 10SM OVC011 14/12 A3013 RMK AO2
SLP201 T01440117





000
SAUS44 KSHV 220658
MTRAQV
METAR KAQV 220656Z AUTO 04007KT 10SM OVC011 14/12 A3013 RMK AO2
SLP201 T01440117





000
SAUS44 KSHV 220655
MTRBKB
METAR KBKB 220654Z AUTO VRB05KT 10SM OVC008 17/13 A3011 RMK AO2 CIG
007V012 SLP224 T01670133





000
SAUS44 KSHV 220655
MTRBKB
METAR KBKB 220654Z AUTO VRB05KT 10SM OVC008 17/13 A3011 RMK AO2 CIG
007V012 SLP224 T01670133





000
SAUS44 KSHV 220637
MTRAQV
SPECI KAQV 220636Z AUTO 05008KT 030V100 10SM OVC010 15/12 A3013 RMK
AO2 T01500122





000
SAUS44 KSHV 220612
MTRAQV
SPECI KAQV 220611Z AUTO VRB06KT 10SM OVC009 15/13 A3014 RMK AO2
T01500128





000
SAUS44 KSHV 220558
MTRAQV
METAR KAQV 220556Z AUTO 05008KT 10SM OVC010 15/13 A3014 RMK AO2
SLP204 60000 T01500128 10206 20150 402500150 58005





000
SAUS44 KSHV 220555
MTRBKB
METAR KBKB 220554Z AUTO 00000KT 10SM OVC007 17/14 A3012 RMK AO2
SLP228 T01670139 10228 20167 402610167 58003





000
SAUS44 KSHV 220526
MTRAQV
SPECI KAQV 220525Z AUTO 04005KT 10SM OVC012 16/13 A3014 RMK AO2
T01560128





000
SAUS44 KSHV 220526
MTRAQV
SPECI KAQV 220525Z AUTO 04005KT 10SM OVC012 16/13 A3014 RMK AO2
T01560128





000
SAUS44 KSHV 220457
MTRAQV
METAR KAQV 220456Z AUTO 02006KT 10SM OVC008 16/13 A3015 RMK AO2
SLP210 T01560133





000
SAUS44 KSHV 220457
MTRAQV
METAR KAQV 220456Z AUTO 02006KT 10SM OVC008 16/13 A3015 RMK AO2
SLP210 T01560133





000
SAUS44 KSHV 220455
MTRBKB
METAR KBKB 220454Z AUTO 02006KT 10SM OVC007 17/14 A3013 RMK AO2
SLP231 T01720139





000
SAUS44 KSHV 220357
MTRAQV
METAR KAQV 220356Z AUTO VRB05KT 10SM OVC009 16/14 A3015 RMK AO2
SLP209 T01610139





000
SAUS44 KSHV 220355
MTRBKB
METAR KBKB 220354Z AUTO VRB04KT 10SM OVC007 18/15 A3013 RMK AO2
SLP229 T01780150





000
SAUS44 KSHV 220329
MTRAQV
SPECI KAQV 220328Z AUTO 04006KT 10SM OVC009 17/14 A3015 RMK AO2
T01670139





000
SAUS44 KSHV 220329
MTRAQV
SPECI KAQV 220328Z AUTO 04006KT 10SM OVC009 17/14 A3015 RMK AO2
T01670139





000
SAUS44 KSHV 220258
MTRAQV
METAR KAQV 220256Z AUTO VRB04KT 10SM OVC010 17/14 A3015 RMK AO2
SLP209 60000 T01670139 53029





000
SAUS44 KSHV 220258
MTRAQV
METAR KAQV 220256Z AUTO VRB04KT 10SM OVC010 17/14 A3015 RMK AO2
SLP209 60000 T01670139 53029





000
SAUS44 KSHV 220255
MTRBKB
METAR KBKB 220254Z AUTO VRB05KT 10SM OVC009 18/15 A3013 RMK AO2 CIG
006V012 SLP230 T01780150 51033





000
SAUS44 KSHV 220230
MTRAQV
SPECI KAQV 220229Z AUTO 03008KT 10SM OVC010 17/14 A3014 RMK AO2 CIG
007V012 T01670139





000
SAUS44 KSHV 220158
MTRAQV
METAR KAQV 220156Z AUTO 06006KT 10SM OVC005 17/15 A3012 RMK AO2
RAE23 CIG 003V009 SLP197 P0000 T01670150





000
SAUS44 KSHV 220155
MTRBKB
METAR KBKB 220154Z AUTO 01004KT 6SM BR OVC005 18/16 A3010 RMK AO2
SLP220 T01780156





000
SAUS44 KSHV 220150
MTRAQV
SPECI KAQV 220149Z AUTO 03006G15KT 10SM OVC005 17/15 A3011 RMK AO2
RAE23 CIG 003V009 P0000 T01670150





000
SAUS44 KSHV 220057
MTRAQV
METAR KAQV 220056Z AUTO 04008KT 5SM -RA BR OVC004 18/17 A3008 RMK
AO2 RAB32 SLP186 P0000 T01780167





000
SAUS44 KSHV 220055
MTRBKB
METAR KBKB 220054Z AUTO 03009KT 3SM HZ OVC007 20/17 A3007 RMK AO2
CIG 004V008 SLP208 T02000172





000
SAUS44 KSHV 220042
MTRAQV
SPECI KAQV 220041Z AUTO VRB06G14KT 6SM -RA BR OVC004 18/17 A3007 RMK
AO2 RAB32 CIG 004V008 P0000 T01830172





000
SAUS44 KSHV 220042
MTRAQV
SPECI KAQV 220041Z AUTO VRB06G14KT 6SM -RA BR OVC004 18/17 A3007 RMK
AO2 RAB32 CIG 004V008 P0000 T01830172





000
SAUS44 KSHV 220032
MTRBKB
SPECI KBKB 220031Z AUTO 03007KT 360V070 10SM OVC009 21/18 A3005 RMK
AO2 CIG 007V014 T02110178





000
SAUS44 KSHV 220032
MTRBKB
SPECI KBKB 220031Z AUTO 03007KT 360V070 10SM OVC009 21/18 A3005 RMK
AO2 CIG 007V014 T02110178





000
SAUS44 KSHV 220013
MTRAQV
SPECI KAQV 220012Z AUTO 02008KT 10SM BKN008 OVC014 20/18 A3006 RMK
AO2 CIG 008V011 T02000178





000
SAUS44 KSHV 220013
MTRAQV
SPECI KAQV 220012Z AUTO 02008KT 10SM BKN008 OVC014 20/18 A3006 RMK
AO2 CIG 008V011 T02000178





000
SAUS44 KSHV 212358
MTRAQV
METAR KAQV 212356Z AUTO 02010KT 10SM OVC011 21/18 A3007 RMK AO2
SLP179 60005 T02060178 10228 20194 55006





000
SAUS44 KSHV 212358
MTRAQV
METAR KAQV 212356Z AUTO 02010KT 10SM OVC011 21/18 A3007 RMK AO2
SLP179 60005 T02060178 10228 20194 55006





000
SAUS44 KSHV 212355
MTRBKB
METAR KBKB 212354Z AUTO 10SM BKN014 OVC019 23/19 A3003 RMK AO2 RAE00
SLP196 P0000 60000 T02280189 10250 20206 58008





000
SAUS44 KSHV 212355
MTRBKB
METAR KBKB 212354Z AUTO 10SM BKN014 OVC019 23/19 A3003 RMK AO2 RAE00
SLP196 P0000 60000 T02280189 10250 20206 58008





000
SAUS44 KSHV 212345 COR
MTRBKB
SPECI KBKB 212342Z AUTO VRB05KT 10SM BKN015 BKN120 23/19 A3003 RMK
AO2 RAE00 P0000 T02330189





000
SAUS44 KSHV 212344 COR
MTRBKB
SPECI KBKB 212342Z AUTO VRB05KT 10SM BKN015 BKN120 23/19 A3003 RMK
AO2 RAE00 P0000 T02330189





000
SAUS44 KSHV 212340
MTRAQV
SPECI KAQV 212339Z AUTO 01008KT 350V050 10SM OVC011 21/18 A3007 RMK
AO2 CIG 007V013 T02060178





000
SAUS44 KSHV 212340
MTRAQV
SPECI KAQV 212339Z AUTO 01008KT 350V050 10SM OVC011 21/18 A3007 RMK
AO2 CIG 007V013 T02060178





000
SAUS44 KSHV 212320
MTRBKB
SPECI KBKB 212319Z AUTO VRB04KT 10SM SCT016 BKN120 23/18 A3003 RMK
AO2 RAE00 P0000 T02330183





000
SAUS44 KSHV 212320
MTRBKB
SPECI KBKB 212319Z AUTO VRB04KT 10SM SCT016 BKN120 23/18 A3003 RMK
AO2 RAE00 P0000 T02330183





000
SAUS44 KSHV 212312
MTRAQV
SPECI KAQV 212310Z AUTO 02006KT 10SM BKN009 OVC016 21/18 A3007 RMK
AO2 CIG 008V013 T02110183





000
SAUS44 KSHV 212312
MTRAQV
SPECI KAQV 212310Z AUTO 02006KT 10SM BKN009 OVC016 21/18 A3007 RMK
AO2 CIG 008V013 T02110183





000
SAUS44 KSHV 212311
MTRBKB
SPECI KBKB 212310Z AUTO VRB03KT 10SM FEW014 BKN019 BKN036 23/19
A3004 RMK AO2 RAE00 P0000 T02330189





000
SAUS44 KSHV 212311
MTRBKB
SPECI KBKB 212310Z AUTO VRB03KT 10SM FEW014 BKN019 BKN036 23/19
A3004 RMK AO2 RAE00 P0000 T02330189





000
SAUS44 KSHV 212258 COR
MTRBKB
METAR KBKB 212254Z AUTO VRB05KT 10SM -RA FEW013 SCT036 BKN065 23/19
A3005 RMK AO2 RAB44 SLP200 P0000 T02330189





000
SAUS44 KSHV 212257
MTRAQV
METAR KAQV 212256Z AUTO 01006KT 10SM FEW008 OVC015 22/19 A3006 RMK
AO2 SLP178 T02170189





000
SAUS44 KSHV 212256 COR
MTRBKB
METAR KBKB 212254Z AUTO VRB05KT 10SM -RA FEW013 SCT036 BKN065 23/19
A3005 RMK AO2 RAB44 SLP200 P0000 T02330189





000
SAUS44 KSHV 212256 COR
MTRBKB
METAR KBKB 212254Z AUTO VRB05KT 10SM -RA FEW013 SCT036 BKN065 23/19
A3005 RMK AO2 RAB44 SLP200 P0000 T02330189





000
SAUS44 KSHV 212222
MTRBKB
SPECI KBKB 212220Z AUTO 00000KT 10SM SCT018 OVC070 24/19 A3006 RMK
AO2 T02390189





000
SAUS44 KSHV 212222
MTRBKB
SPECI KBKB 212220Z AUTO 00000KT 10SM SCT018 OVC070 24/19 A3006 RMK
AO2 T02390189





000
SAUS44 KSHV 212213
MTRBKB
SPECI KBKB 212212Z AUTO 35004KT 10SM BKN018 OVC075 24/19 A3006 RMK
AO2 T02390189





000
SAUS44 KSHV 212157
MTRAQV
METAR KAQV 212156Z AUTO 36006KT 10SM OVC016 22/19 A3008 RMK AO2
SLP184 T02220189





000
SAUS44 KSHV 212157
MTRAQV
METAR KAQV 212156Z AUTO 36006KT 10SM OVC016 22/19 A3008 RMK AO2
SLP184 T02220189





000
SAUS44 KSHV 212155
MTRBKB
METAR KBKB 212154Z AUTO 36003KT 10SM BKN080 OVC110 24/18 A3006 RMK
AO2 SLP206 T02390183





000
SAUS44 KSHV 212155
MTRBKB
METAR KBKB 212154Z AUTO 36003KT 10SM BKN080 OVC110 24/18 A3006 RMK
AO2 SLP206 T02390183





000
SAUS44 KSHV 212153
MTRAQV
SPECI KAQV 212152Z AUTO 01005KT 10SM OVC016 22/19 A3008 RMK AO2





000
SAUS44 KSHV 212153
MTRAQV
SPECI KAQV 212152Z AUTO 01005KT 10SM OVC016 22/19 A3008 RMK AO2





000
SAUS44 KSHV 212145
MTRAQV
SPECI KAQV 212144Z AUTO 00000KT 10SM OVC014 22/19 A3009 RMK AO2
T02220189





000
SAUS44 KSHV 212130
MTRAQV
SPECI KAQV 212129Z AUTO VRB04KT 10SM OVC015 23/19 A3009 RMK AO2
T02280189





000
SAUS44 KSHV 212120
MTRAQV
SPECI KAQV 212118Z AUTO VRB05KT 10SM BKN013 BKN017 BKN090 23/19
A3008 RMK AO2 T02280189





000
SAUS44 KSHV 212057
MTRAQV
METAR KAQV 212056Z AUTO 04004KT 10SM FEW011 FEW095 SCT120 22/19
A3008 RMK AO2 SLP183 60005 T02220189 56010





000
SAUS44 KSHV 212055
MTRBKB
METAR KBKB 212054Z AUTO 00000KT 10SM SCT100 24/18 A3006 RMK AO2
SLP203 60000 T02440183 56017





000
SAUS44 KSHV 212055
MTRBKB
METAR KBKB 212054Z AUTO 00000KT 10SM SCT100 24/18 A3006 RMK AO2
SLP203 60000 T02440183 56017





000
SAUS44 KSHV 212048
MTRAQV
SPECI KAQV 212047Z AUTO VRB05KT 10SM FEW011 BKN110 22/18 A3008 RMK
AO2 T02170183





000
SAUS44 KSHV 212048
MTRAQV
SPECI KAQV 212047Z AUTO VRB05KT 10SM FEW011 BKN110 22/18 A3008 RMK
AO2 T02170183





000
SAUS44 KSHV 212033
MTRAQV
SPECI KAQV 212031Z AUTO 02004KT 10SM BKN011 BKN120 22/19 A3007 RMK
AO2 T02220189





000
SAUS44 KSHV 211957
MTRAQV
METAR KAQV 211956Z AUTO VRB05KT 10SM SCT010 BKN110 22/19 A3008 RMK
AO2 RAE38 SLP184 P0000 T02220189





000
SAUS44 KSHV 211957
MTRAQV
METAR KAQV 211956Z AUTO VRB05KT 10SM SCT010 BKN110 22/19 A3008 RMK
AO2 RAE38 SLP184 P0000 T02220189





000
SAUS44 KSHV 211955
MTRBKB
METAR KBKB 211954Z AUTO VRB05KT 10SM CLR 24/19 A3006 RMK AO2 SLP206
T02390189





000
SAUS44 KSHV 211955
MTRBKB
METAR KBKB 211954Z AUTO VRB05KT 10SM CLR 24/19 A3006 RMK AO2 SLP206
T02390189





000
SAUS44 KSHV 211949
MTRAQV
SPECI KAQV 211948Z AUTO 06004KT 10SM SCT010 BKN110 22/19 A3008 RMK
AO2 RAE38 P0000 T02170189





000
SAUS44 KSHV 211946
MTRAQV
SPECI KAQV 211944Z AUTO VRB04KT 10SM BKN009 BKN110 22/19 A3008 RMK
AO2 RAE38 P0000 T02170189





000
SAUS44 KSHV 211946
MTRAQV
SPECI KAQV 211944Z AUTO VRB04KT 10SM BKN009 BKN110 22/19 A3008 RMK
AO2 RAE38 P0000 T02170189





000
SAUS44 KSHV 211857
MTRAQV
METAR KAQV 211856Z AUTO VRB06KT 10SM -RA FEW009 BKN070 OVC100 21/19
A3010 RMK AO2 SLP189 P0005 T02110189





000
SAUS44 KSHV 211855
MTRBKB
METAR KBKB 211854Z AUTO VRB05KT 10SM FEW050 OVC110 22/18 A3008 RMK
AO2 RAE07 SLP213 P0000 T02220183





000
SAUS44 KSHV 211801 COR
MTRAQV
METAR KAQV 211756Z AUTO 03006KT 4SM RA BR SCT006 BKN050 OVC080 19/18
A3011 RMK AO2 TSE17 PRESFR SLP193 P0017 60080 T01940178 10233 20194
50003





000
SAUS44 KSHV 211801 COR
MTRAQV
METAR KAQV 211756Z AUTO 03006KT 4SM RA BR SCT006 BKN050 OVC080 19/18
A3011 RMK AO2 TSE17 PRESFR SLP193 P0017 60080 T01940178 10233 20194
50003





000
SAUS44 KSHV 211759 COR
MTRAQV
METAR KAQV 211756Z AUTO 03006KT 4SM RA BR SCT006 BKN050 OVC080 19/18
A3011 RMK AO2 TSE17 PRESFR SLP193 P0017 60080 T01940178 10233 20194
50003





000
SAUS44 KSHV 211759 COR
MTRAQV
METAR KAQV 211756Z AUTO 03006KT 4SM RA BR SCT006 BKN050 OVC080 19/18
A3011 RMK AO2 TSE17 PRESFR SLP193 P0017 60080 T01940178 10233 20194
50003





000
SAUS44 KSHV 211758 COR
MTRAQV
METAR KAQV 211756Z AUTO 03006KT 4SM RA BR SCT006 BKN050 OVC080 19/18
A3011 RMK AO2 TSE17 PRESFR SLP193 P0017 60080 T01940178 10233 20194
50003





000
SAUS44 KSHV 211758 COR
MTRAQV
METAR KAQV 211756Z AUTO 03006KT 4SM RA BR SCT006 BKN050 OVC080 19/18
A3011 RMK AO2 TSE17 PRESFR SLP193 P0017 60080 T01940178 10233 20194
50003





000
SAUS44 KSHV 211757
MTRAQV
METAR KAQV 211756Z AUTO 03006KT 4SM RA BR SCT006 BKN050 OVC080 19/18
A3011 RMK AO2 TSE17 PRESFR SLP193 P0017 60080 T01940178 10233 20194
50003





000
SAUS44 KSHV 211757
MTRAQV
METAR KAQV 211756Z AUTO 03006KT 4SM RA BR SCT006 BKN050 OVC080 19/18
A3011 RMK AO2 TSE17 PRESFR SLP193 P0017 60080 T01940178 10233 20194
50003





000
SAUS44 KSHV 211755
MTRBKB
METAR KBKB 211754Z AUTO VRB04KT 7SM -RA FEW055 BKN070 OVC085 21/18
A3011 RMK AO2 TSE06B16E50 SLP222 P0008 60040 T02060178 10261 20206
50022





000
SAUS44 KSHV 211742
MTRAQV
SPECI KAQV 211741Z AUTO 03006KT 3SM RA BR SCT007 BKN075 OVC095 19/18
A3013 RMK AO2 TSE17 P0012 T01940178





000
SAUS44 KSHV 211724
MTRAQV
SPECI KAQV 211723Z AUTO 01008G15KT 5SM RA BR FEW035 BKN095 OVC110
19/18 A3012 RMK AO2 TSE17 P0005 T01940178





000
SAUS44 KSHV 211724
MTRAQV
SPECI KAQV 211723Z AUTO 01008G15KT 5SM RA BR FEW035 BKN095 OVC110
19/18 A3012 RMK AO2 TSE17 P0005 T01940178





000
SAUS44 KSHV 211717
MTRBKB
SPECI KBKB 211716Z AUTO VRB05KT 9SM -TSRA FEW010 SCT026 OVC070 21/18
A3012 RMK AO2 TSE06B16 P0003 T02060178





000
SAUS44 KSHV 211717
MTRBKB
SPECI KBKB 211716Z AUTO VRB05KT 9SM -TSRA FEW010 SCT026 OVC070 21/18
A3012 RMK AO2 TSE06B16 P0003 T02060178





000
SAUS44 KSHV 211707
MTRBKB
SPECI KBKB 211706Z AUTO 36008G17KT 330V040 3SM -RA BR SCT011 BKN027
OVC070 21/18 A3012 RMK AO2 TSE06 P0003 T02060183





000
SAUS44 KSHV 211706
MTRAQV
SPECI KAQV 211705Z AUTO 01009KT 3SM -TSRA BR FEW006 BKN041 OVC090
19/18 A3012 RMK AO2 P0001 T01940178





000
SAUS44 KSHV 211701 COR
MTRAQV
METAR KAQV 211656Z AUTO 06004KT 1 3/4SM +TSRA BR FEW004 OVC033 19/18
A3013 RMK AO2 PK WND 01027/1608 TSB1557 SLP201 P0058 T01940183





000
SAUS44 KSHV 211701 COR
MTRAQV
METAR KAQV 211656Z AUTO 06004KT 1 3/4SM +TSRA BR FEW004 OVC033 19/18
A3013 RMK AO2 PK WND 01027/1608 TSB1557 SLP201 P0058 T01940183





000
SAUS44 KSHV 211700
MTRBKB
SPECI KBKB 211658Z AUTO 36007KT 270V030 1SM +TSRA BR FEW005 BKN017
OVC027 21/18 A3013 RMK AO2 P0002 T02060183





000
SAUS44 KSHV 211700
MTRBKB
SPECI KBKB 211658Z AUTO 36007KT 270V030 1SM +TSRA BR FEW005 BKN017
OVC027 21/18 A3013 RMK AO2 P0002 T02060183





000
SAUS44 KSHV 211659 COR
MTRAQV
METAR KAQV 211656Z AUTO 06004KT 1 3/4SM +TSRA BR FEW004 OVC033 19/18
A3013 RMK AO2 PK WND 01027/1608 TSB1557 SLP201 P0058 T01940183





000
SAUS44 KSHV 211659 COR
MTRAQV
METAR KAQV 211656Z AUTO 06004KT 1 3/4SM +TSRA BR FEW004 OVC033 19/18
A3013 RMK AO2 PK WND 01027/1608 TSB1557 SLP201 P0058 T01940183





000
SAUS44 KSHV 211658 COR
MTRAQV
METAR KAQV 211656Z AUTO 06004KT 1 3/4SM +TSRA BR FEW004 OVC033 19/18
A3013 RMK AO2 PK WND 01027/1608 TSB1557 SLP201 P0058 T01940183





000
SAUS44 KSHV 211657
MTRAQV
METAR KAQV 211656Z AUTO 06004KT 1 3/4SM +TSRA BR FEW004 OVC033 19/18
A3013 RMK AO2 PK WND 01027/1608 TSB1557 SLP201 P0058 T01940183





000
SAUS44 KSHV 211657
MTRAQV
METAR KAQV 211656Z AUTO 06004KT 1 3/4SM +TSRA BR FEW004 OVC033 19/18
A3013 RMK AO2 PK WND 01027/1608 TSB1557 SLP201 P0058 T01940183





000
SAUS44 KSHV 211655
MTRBKB
METAR KBKB 211654Z AUTO 34007KT 300V070 3/4SM +TSRA BR FEW005 BKN010
OVC027 21/18 A3013 RMK AO2 RAB30 TSB36 SLP228 P0032 T02060183





000
SAUS44 KSHV 211647
MTRBKB
SPECI KBKB 211645Z AUTO 01007G19KT 340V050 3/4SM +TSRA SCT005 BKN010
OVC027 21/18 A3013 RMK AO2 RAB30 TSB36 P0020 T02060178





000
SAUS44 KSHV 211647
MTRAQV
SPECI KAQV 211645Z AUTO VRB04KT 1 1/2SM +TSRA BR FEW006 OVC036 19/18
A3014 RMK AO2 PK WND 01027/1608 TSB1557 P0050 T01940178





000
SAUS44 KSHV 211643
MTRBKB
SPECI KBKB 211641Z AUTO 35008G17KT 260V070 1 1/2SM -TSRA SCT005
BKN016 OVC027 21/18 A3013 RMK AO2 RAB30 TSB36 PRESRR P0010 T02110183





000
SAUS44 KSHV 211636
MTRAQV
SPECI KAQV 211635Z AUTO VRB06KT 1SM +TSRA BR FEW006 BKN017 OVC040
19/18 A3014 RMK AO2 PK WND 01027/1608 TSB1557 P0044 T01940183





000
SAUS44 KSHV 211636
MTRAQV
SPECI KAQV 211635Z AUTO VRB06KT 1SM +TSRA BR FEW006 BKN017 OVC040
19/18 A3014 RMK AO2 PK WND 01027/1608 TSB1557 P0044 T01940183





000
SAUS44 KSHV 211633
MTRAQV
SPECI KAQV 211632Z AUTO 34007KT 3/4SM +TSRA BR FEW004 BKN014 OVC040
19/18 A3014 RMK AO2 PK WND 01027/1608 TSB1557 P0042 T01940183





000
SAUS44 KSHV 211632
MTRBKB
SPECI KBKB 211630Z AUTO 35011G19KT 290V070 1 3/4SM -RA OVC005 24/21
A3009 RMK AO2 RAB30 PRESRR P0000 T02390211





000
SAUS44 KSHV 211625
MTRAQV
SPECI KAQV 211624Z AUTO 35008G16KT 3/4SM +TSRA BR FEW009 BKN016
OVC041 19/18 A3014 RMK AO2 PK WND 01027/1608 TSB1557 P0030 T01940183





000
SAUS44 KSHV 211623
MTRAQV
SPECI KAQV 211622Z AUTO VRB06G16KT 1SM +TSRA BR FEW009 BKN014 OVC041
19/18 A3014 RMK AO2 PK WND 01027/1608 TSB1557 P0027 T01940183





000
SAUS44 KSHV 211616
MTRAQV
SPECI KAQV 211614Z AUTO 35012G27KT 1 1/2SM +TSRA BR SCT011 BKN018
OVC039 20/18 A3013 RMK AO2 PK WND 01027/1608 TSB1557 PRESRR P0012
T02000183





000
SAUS44 KSHV 211616
MTRAQV
SPECI KAQV 211614Z AUTO 35012G27KT 1 1/2SM +TSRA BR SCT011 BKN018
OVC039 20/18 A3013 RMK AO2 PK WND 01027/1608 TSB1557 PRESRR P0012
T02000183





000
SAUS44 KSHV 211610
MTRAQV
SPECI KAQV 211607Z AUTO 01014G26KT 1 3/4SM +TSRA BR FEW006 BKN010
OVC039 21/19 A3011 RMK AO2 PK WND 02026/1607 TSB1557 CIG 008V013
P0007 T02060189





000
SAUS44 KSHV 211555
MTRBKB
METAR KBKB 211554Z AUTO VRB04KT 10SM OVC008 26/22 A3006 RMK AO2 CIG
006V011 SLP204 T02560217





000
SAUS44 KSHV 211555
MTRAQV
SPECI KAQV 211554Z AUTO 01017G28KT 9SM -RA BKN006 BKN012 OVC016
21/19 A3010 RMK AO2 PK WND 36028/1552 RAE13B50 CIG 003V009 P0000





000
SAUS44 KSHV 211532
MTRBKB
SPECI KBKB 211531Z AUTO VRB03KT 10SM BKN009 26/22 A3004 RMK AO2
T02610217





000
SAUS44 KSHV 211513
MTRBKB
SPECI KBKB 211512Z AUTO VRB03KT 10SM FEW007 SCT016 26/22 A3004 RMK
AO2 T02610217





000
SAUS44 KSHV 211505
MTRBKB
SPECI KBKB 211504Z AUTO 00000KT 10SM SCT007 BKN016 26/22 A3004 RMK
AO2 T02610222





000
SAUS44 KSHV 211457
MTRAQV
METAR KAQV 211456Z AUTO 01006KT 3SM -RA BR OVC004 23/22 A3007 RMK
AO2 SLP179 P0005 60005 T02280217 53014





000
SAUS44 KSHV 211457
MTRAQV
METAR KAQV 211456Z AUTO 01006KT 3SM -RA BR OVC004 23/22 A3007 RMK
AO2 SLP179 P0005 60005 T02280217 53014





000
SAUS44 KSHV 211455
MTRBKB
METAR KBKB 211454Z AUTO 00000KT 10SM BKN007 OVC014 26/22 A3004 RMK
AO2 CIG 006V011 SLP199 T02560222 51020





000
SAUS44 KSHV 211357
MTRAQV
METAR KAQV 211356Z AUTO 36003KT 5SM -RA BR OVC003 23/22 A3005 RMK
AO2 RAB42 TSB25E40 SLP173 P0000 T02280217





000
SAUS44 KSHV 211357
MTRAQV
METAR KAQV 211356Z AUTO 36003KT 5SM -RA BR OVC003 23/22 A3005 RMK
AO2 RAB42 TSB25E40 SLP173 P0000 T02280217





000
SAUS44 KSHV 211355
MTRBKB
METAR KBKB 211354Z AUTO 00000KT 9SM OVC006 26/23 A3003 RMK AO2
SLP193 T02610228





000
SAUS44 KSHV 211355
MTRBKB
METAR KBKB 211354Z AUTO 00000KT 9SM OVC006 26/23 A3003 RMK AO2
SLP193 T02610228





000
SAUS44 KSHV 211347
MTRAQV
SPECI KAQV 211346Z AUTO VRB03KT 5SM -RA BR OVC004 23/22 A3004 RMK
AO2 RAB42 TSB25E40 P0000 T02280217





000
SAUS44 KSHV 211346
MTRBKB
SPECI KBKB 211345Z AUTO 00000KT 9SM BKN006 26/23 A3002 RMK AO2
T02560228





000
SAUS44 KSHV 211346
MTRBKB
SPECI KBKB 211345Z AUTO 00000KT 9SM BKN006 26/23 A3002 RMK AO2
T02560228





000
SAUS44 KSHV 211331
MTRAQV
SPECI KAQV 211330Z AUTO 36003KT 7SM TS BKN004 BKN010 23/21 A3003 RMK
AO2 TSB25 T02280211





000
SAUS44 KSHV 211331
MTRAQV
SPECI KAQV 211330Z AUTO 36003KT 7SM TS BKN004 BKN010 23/21 A3003 RMK
AO2 TSB25 T02280211





000
SAUS44 KSHV 211317
MTRBKB
SPECI KBKB 211316Z AUTO 00000KT 9SM SCT005 26/23 A3001 RMK AO2
T02560228





000
SAUS44 KSHV 211303
MTRBKB
SPECI KBKB 211302Z AUTO 00000KT 8SM BKN005 26/23 A3001 RMK AO2
T02560228





000
SAUS44 KSHV 211257
MTRAQV
METAR KAQV 211256Z AUTO 35003KT 6SM BR FEW002 BKN070 BKN085 23/22
A3003 RMK AO2 SLP164 T02280217





000
SAUS44 KSHV 211255
MTRBKB
METAR KBKB 211254Z AUTO 00000KT 8SM OVC004 26/22 A3001 RMK AO2
SLP187 T02560222





000
SAUS44 KSHV 211252
MTRAQV
SPECI KAQV 211251Z AUTO 34003KT 6SM BR FEW002 BKN070 BKN090 23/22
A3003 RMK AO2





000
SAUS44 KSHV 211252
MTRAQV
SPECI KAQV 211251Z AUTO 34003KT 6SM BR FEW002 BKN070 BKN090 23/22
A3003 RMK AO2





000
SAUS44 KSHV 211209
MTRBKB
SPECI KBKB 211208Z AUTO 00000KT 6SM BR BKN004 25/23 A2999 RMK AO2
T02500228





000
SAUS44 KSHV 211209
MTRBKB
SPECI KBKB 211208Z AUTO 00000KT 6SM BR BKN004 25/23 A2999 RMK AO2
T02500228





000
SAUS44 KSHV 211157
MTRAQV
METAR KAQV 211156Z AUTO 00000KT 5SM BR SCT090 23/22 A3000 RMK AO2
SLP156 60002 7//// T02280217 10250 20228 55002





000
SAUS44 KSHV 211157
MTRAQV
METAR KAQV 211156Z AUTO 00000KT 5SM BR SCT090 23/22 A3000 RMK AO2
SLP156 60002 7//// T02280217 10250 20228 55002





000
SAUS44 KSHV 211155
MTRBKB
METAR KBKB 211154Z AUTO 00000KT 4SM BR FEW004 24/22 A2999 RMK AO2
SLP179 T02440222 10250 20239 56002





000
SAUS44 KSHV 211155
MTRBKB
METAR KBKB 211154Z AUTO 00000KT 4SM BR FEW004 24/22 A2999 RMK AO2
SLP179 T02440222 10250 20239 56002





000
SAUS44 KSHV 211057
MTRAQV
METAR KAQV 211056Z AUTO 00000KT 7SM SCT048 OVC085 23/21 A3000 RMK
AO2 RAB02E21 SLP155 P0001 T02280211





000
SAUS44 KSHV 211057
MTRAQV
METAR KAQV 211056Z AUTO 00000KT 7SM SCT048 OVC085 23/21 A3000 RMK
AO2 RAB02E21 SLP155 P0001 T02280211





000
SAUS44 KSHV 211056
MTRBKB
METAR KBKB 211054Z AUTO 00000KT 7SM FEW046 OVC060 24/22 A2999 RMK
AO2 SLP180 T02440222





000
SAUS44 KSHV 211056
MTRBKB
METAR KBKB 211054Z AUTO 00000KT 7SM FEW046 OVC060 24/22 A2999 RMK
AO2 SLP180 T02440222





000
SAUS44 KSHV 210957
MTRAQV
METAR KAQV 210956Z AUTO 00000KT 9SM FEW055 FEW080 BKN110 23/21 A2999
RMK AO2 RAB06E44 TSE41 SLP151 P0001 T02280211





000
SAUS44 KSHV 210955
MTRBKB
METAR KBKB 210954Z AUTO 00000KT 9SM BKN060 25/22 A2998 RMK AO2
SLP175 T02500222





000
SAUS44 KSHV 210949
MTRAQV
SPECI KAQV 210947Z AUTO 00000KT 10SM FEW055 SCT070 BKN110 23/21
A2999 RMK AO2 RAB06E44 TSE41 P0001 T02280211





000
SAUS44 KSHV 210935 COR
MTRAQV
SPECI KAQV 210931Z AUTO 00000KT 9SM -TSRA FEW029 BKN070 OVC110 23/21
A3000 RMK AO2 RAB06 P0001 T02280211





000
SAUS44 KSHV 210934 COR
MTRAQV
SPECI KAQV 210931Z AUTO 00000KT 9SM -TSRA FEW029 BKN070 OVC110 23/21
A3000 RMK AO2 RAB06 P0001 T02280211





000
SAUS44 KSHV 210933 COR
MTRAQV
SPECI KAQV 210931Z AUTO 00000KT 9SM -TSRA FEW029 BKN070 OVC110 23/21
A3000 RMK AO2 RAB06 P0001 T02280211





000
SAUS44 KSHV 210932
MTRAQV
SPECI KAQV 210931Z AUTO 00000KT 9SM -TSRA FEW029 BKN070 OVC110 23/21
A3000 RMK AO2 RAB06 P0001 T02280211





000
SAUS44 KSHV 210858
MTRAQV
METAR KAQV 210856Z AUTO 25003KT 8SM TS BKN026 BKN055 BKN110 24/22
A3001 RMK AO2 RAB45E52 TSE09B42 SLP158 P0000 60000 T02390222 53002





000
SAUS44 KSHV 210855
MTRBKB
METAR KBKB 210854Z AUTO 00000KT 9SM SCT034 BKN043 OVC055 25/22 A2999
RMK AO2 SLP180 T02500222 55002





000
SAUS44 KSHV 210855
MTRBKB
METAR KBKB 210854Z AUTO 00000KT 9SM SCT034 BKN043 OVC055 25/22 A2999
RMK AO2 SLP180 T02500222 55002





000
SAUS44 KSHV 210852 COR
MTRAQV
SPECI KAQV 210848Z AUTO 00000KT 8SM -TSRA FEW028 SCT055 BKN110 24/22
A3000 RMK AO2 RAB45 TSE09B42 P0000 T02390222





000
SAUS44 KSHV 210852 COR
MTRAQV
SPECI KAQV 210848Z AUTO 00000KT 8SM -TSRA FEW028 SCT055 BKN110 24/22
A3000 RMK AO2 RAB45 TSE09B42 P0000 T02390222





000
SAUS44 KSHV 210851 COR
MTRAQV
SPECI KAQV 210848Z AUTO 00000KT 8SM -TSRA FEW028 SCT055 BKN110 24/22
A3000 RMK AO2 RAB45 TSE09B42 P0000 T02390222





000
SAUS44 KSHV 210850 COR
MTRAQV
SPECI KAQV 210848Z AUTO 00000KT 8SM -TSRA FEW028 SCT055 BKN110 24/22
A3000 RMK AO2 RAB45 TSE09B42 P0000 T02390222





000
SAUS44 KSHV 210849
MTRAQV
SPECI KAQV 210848Z AUTO 00000KT 8SM -TSRA FEW028 SCT055 BKN110 24/22
A3000 RMK AO2 RAB45 TSE09B42 P0000 T02390222





000
SAUS44 KSHV 210849
MTRAQV
SPECI KAQV 210848Z AUTO 00000KT 8SM -TSRA FEW028 SCT055 BKN110 24/22
A3000 RMK AO2 RAB45 TSE09B42 P0000 T02390222





000
SAUS44 KSHV 210816
MTRAQV
SPECI KAQV 210815Z AUTO 00000KT 10SM FEW042 SCT050 BKN060 24/22
A3000 RMK AO2 TSE09 T02440222





000
SAUS44 KSHV 210816
MTRAQV
SPECI KAQV 210815Z AUTO 00000KT 10SM FEW042 SCT050 BKN060 24/22
A3000 RMK AO2 TSE09 T02440222





000
SAUS44 KSHV 210757
MTRAQV
METAR KAQV 210756Z AUTO 00000KT 9SM TS SCT041 BKN050 OVC110 24/22
A3000 RMK AO2 RAB27E40 TSE21B30 SLP155 P0000 T02440222





000
SAUS44 KSHV 210755
MTRBKB
METAR KBKB 210754Z AUTO VRB03KT 10SM SCT041 BKN055 BKN100 24/22
A2998 RMK AO2 TSB21E37 SLP175 T02440217





000
SAUS44 KSHV 210745
MTRBKB
SPECI KBKB 210743Z AUTO 00000KT 10SM BKN041 OVC050 25/22 A2999 RMK
AO2 TSB21E37 T02500222





000
SAUS44 KSHV 210742
MTRAQV
SPECI KAQV 210740Z AUTO 00000KT 9SM TS SCT010 BKN042 OVC049 24/23
A3000 RMK AO2 RAB27E40 TSE21B30 P0000 T02440228





000
SAUS44 KSHV 210731 COR
MTRBKB
SPECI KBKB 210727Z AUTO 00000KT 10SM TS OVC041 25/22 A2999 RMK AO2
TSB21 T02500222





000
SAUS44 KSHV 210731
MTRAQV
SPECI KAQV 210730Z AUTO 00000KT 8SM -TSRA SCT010 BKN020 OVC039 24/23
A3000 RMK AO2 RAB27 TSE21B30 P0000 T02440228





000
SAUS44 KSHV 210731 COR
MTRBKB
SPECI KBKB 210727Z AUTO 00000KT 10SM TS OVC041 25/22 A2999 RMK AO2
TSB21 T02500222





000
SAUS44 KSHV 210731
MTRAQV
SPECI KAQV 210730Z AUTO 00000KT 8SM -TSRA SCT010 BKN020 OVC039 24/23
A3000 RMK AO2 RAB27 TSE21B30 P0000 T02440228





000
SAUS44 KSHV 210729 COR
MTRBKB
SPECI KBKB 210727Z AUTO 00000KT 10SM TS OVC041 25/22 A2999 RMK AO2
TSB21 T02500222





000
SAUS44 KSHV 210729 COR
MTRBKB
SPECI KBKB 210727Z AUTO 00000KT 10SM TS OVC041 25/22 A2999 RMK AO2
TSB21 T02500222





000
SAUS44 KSHV 210722
MTRAQV
SPECI KAQV 210721Z AUTO VRB03KT 8SM BKN010 BKN020 OVC110 24/23 A3000
RMK AO2 TSE21 T02440228





000
SAUS44 KSHV 210658
MTRAQV
METAR KAQV 210656Z AUTO VRB03KT 8SM TS FEW012 BKN020 BKN100 24/23
A2999 RMK AO2 TSE35B43 SLP153 T02440228





000
SAUS44 KSHV 210655
MTRBKB
METAR KBKB 210654Z AUTO 00000KT 10SM SCT041 BKN048 24/22 A2999 RMK
AO2 SLP181 T02440217





000
SAUS44 KSHV 210655
MTRBKB
METAR KBKB 210654Z AUTO 00000KT 10SM SCT041 BKN048 24/22 A2999 RMK
AO2 SLP181 T02440217





000
SAUS44 KSHV 210650
MTRAQV
SPECI KAQV 210649Z AUTO 18003KT 9SM TS SCT012 BKN020 BKN027 25/23
A3000 RMK AO2 TSE35B43 T02500228





000
SAUS44 KSHV 210650
MTRAQV
SPECI KAQV 210649Z AUTO 18003KT 9SM TS SCT012 BKN020 BKN027 25/23
A3000 RMK AO2 TSE35B43 T02500228





000
SAUS44 KSHV 210643
MTRAQV
SPECI KAQV 210641Z AUTO 00000KT 9SM BKN012 OVC020 25/23 A3001 RMK
AO2 TSE35 T02500228





000
SAUS44 KSHV 210629
MTRAQV
SPECI KAQV 210627Z AUTO 00000KT 8SM TS BKN012 BKN029 BKN036 25/23
A3001 RMK AO2 T02500228





000
SAUS44 KSHV 210629
MTRAQV
SPECI KAQV 210627Z AUTO 00000KT 8SM TS BKN012 BKN029 BKN036 25/23
A3001 RMK AO2 T02500228





000
SAUS44 KSHV 210558
MTRAQV
METAR KAQV 210556Z AUTO 00000KT 7SM TS CLR 24/23 A3000 RMK AO2 TSB28
SLP157 T02440228 10289 20244 403220222 51008





000
SAUS44 KSHV 210558
MTRAQV
METAR KAQV 210556Z AUTO 00000KT 7SM TS CLR 24/23 A3000 RMK AO2 TSB28
SLP157 T02440228 10289 20244 403220222 51008





000
SAUS44 KSHV 210556
MTRBKB
METAR KBKB 210554Z AUTO 00000KT 10SM CLR 24/22 A3000 RMK AO2 SLP183
60000 T02440217 10300 20244 403390222 51009





000
SAUS44 KSHV 210556
MTRBKB
METAR KBKB 210554Z AUTO 00000KT 10SM CLR 24/22 A3000 RMK AO2 SLP183
60000 T02440217 10300 20244 403390222 51009





000
SAUS44 KSHV 210535
MTRAQV
SPECI KAQV 210534Z AUTO 00000KT 9SM TS CLR 25/23 A3001 RMK AO2 TSB28
T02500228





000
SAUS44 KSHV 210457
MTRAQV
METAR KAQV 210456Z AUTO 00000KT 10SM CLR 25/23 A3000 RMK AO2 SLP154
T02500228





000
SAUS44 KSHV 210455
MTRBKB
METAR KBKB 210454Z AUTO 00000KT 10SM CLR 26/22 A2999 RMK AO2 SLP179
T02610217





000
SAUS44 KSHV 210358
MTRAQV
METAR KAQV 210356Z AUTO VRB04KT 10SM BKN032 BKN043 OVC065 27/23
A3000 RMK AO2 SLP155 T02670228





000
SAUS44 KSHV 210355
MTRBKB
METAR KBKB 210354Z AUTO VRB03KT 10SM CLR 27/22 A2999 RMK AO2 SLP180
T02670217





000
SAUS44 KSHV 210355
MTRBKB
METAR KBKB 210354Z AUTO VRB03KT 10SM CLR 27/22 A2999 RMK AO2 SLP180
T02670217





000
SAUS44 KSHV 210257
MTRAQV
METAR KAQV 210256Z AUTO 00000KT 10SM SCT045 BKN055 26/23 A2998 RMK
AO2 SLP149 T02610233 53018





000
SAUS44 KSHV 210257
MTRAQV
METAR KAQV 210256Z AUTO 00000KT 10SM SCT045 BKN055 26/23 A2998 RMK
AO2 SLP149 T02610233 53018





000
SAUS44 KSHV 210255
MTRBKB
METAR KBKB 210254Z AUTO 00000KT 10SM SCT034 BKN060 27/23 A2997 RMK
AO2 SLP174 60000 T02670228 53019





000
SAUS44 KSHV 210157
MTRAQV
METAR KAQV 210156Z AUTO 00000KT 9SM FEW040 26/24 A2996 RMK AO2
SLP141 T02560239





000
SAUS44 KSHV 210157
MTRAQV
METAR KAQV 210156Z AUTO 00000KT 9SM FEW040 26/24 A2996 RMK AO2
SLP141 T02560239





000
SAUS44 KSHV 210155
MTRBKB
METAR KBKB 210154Z AUTO 00000KT 10SM BKN047 27/23 A2994 RMK AO2
RAE00 SLP164 P0000 T02670228





000
SAUS44 KSHV 210155
MTRBKB
METAR KBKB 210154Z AUTO 00000KT 10SM BKN047 27/23 A2994 RMK AO2
RAE00 SLP164 P0000 T02670228





000
SAUS44 KSHV 210057
MTRAQV
METAR KAQV 210056Z AUTO 00000KT 10SM BKN060 28/24 A2993 RMK AO2
SLP133 T02780244





000
SAUS44 KSHV 210057
MTRAQV
METAR KAQV 210056Z AUTO 00000KT 10SM BKN060 28/24 A2993 RMK AO2
SLP133 T02780244





000
SAUS44 KSHV 210055
MTRBKB
METAR KBKB 210054Z AUTO 00000KT 9SM -RA SCT044 BKN055 BKN075 28/23
A2992 RMK AO2 RAB47 SLP157 P0000 T02780228





000
SAUS44 KSHV 210055
MTRBKB
METAR KBKB 210054Z AUTO 00000KT 9SM -RA SCT044 BKN055 BKN075 28/23
A2992 RMK AO2 RAB47 SLP157 P0000 T02780228





000
SAUS44 KSHV 202357
MTRAQV
METAR KAQV 202356Z AUTO 00000KT 10SM CLR 29/23 A2993 RMK AO2 SLP130
6//// T02890233 10322 20256 58007





000
SAUS44 KSHV 202357
MTRAQV
METAR KAQV 202356Z AUTO 00000KT 10SM CLR 29/23 A2993 RMK AO2 SLP130
6//// T02890233 10322 20256 58007





000
SAUS44 KSHV 202355
MTRBKB
METAR KBKB 202354Z AUTO VRB04KT 10SM FEW042 30/23 A2991 RMK AO2
SLP154 T03000228 10339 20300 57008





000
SAUS44 KSHV 202355
MTRBKB
METAR KBKB 202354Z AUTO VRB04KT 10SM FEW042 30/23 A2991 RMK AO2
SLP154 T03000228 10339 20300 57008





000
SAUS44 KSHV 202258
MTRAQV
METAR KAQV 202256Z AUTO 19003KT 10SM BKN042 31/21 A2994 RMK AO2
SLP134 T03110211





000
SAUS44 KSHV 202258
MTRAQV
METAR KAQV 202256Z AUTO 19003KT 10SM BKN042 31/21 A2994 RMK AO2
SLP134 T03110211





000
SAUS44 KSHV 202255
MTRBKB
METAR KBKB 202254Z AUTO VRB04KT 10SM CLR 32/22 A2992 RMK AO2 SLP157
T03170222





000
SAUS44 KSHV 202157
MTRAQV
METAR KAQV 202156Z AUTO 19004KT 10SM CLR 32/21 A2995 RMK AO2 SLP138
T03170206





000
SAUS44 KSHV 202155
MTRBKB
METAR KBKB 202154Z AUTO 00000KT 10SM CLR 33/21 A2993 RMK AO2 SLP159
T03330206





000
SAUS44 KSHV 202057
MTRAQV
METAR KAQV 202056Z AUTO VRB05KT 10SM SCT043 32/20 A2995 RMK AO2
SLP138 6//// T03170200





000
SAUS44 KSHV 202055
MTRBKB
METAR KBKB 202054Z AUTO VRB04KT 10SM CLR 33/20 A2994 RMK AO2 SLP162
T03330200 56013





000
SAUS44 KSHV 202055
MTRBKB
METAR KBKB 202054Z AUTO VRB04KT 10SM CLR 33/20 A2994 RMK AO2 SLP162
T03330200 56013





000
SAUS44 KSHV 202000 COR
MTRAQV
METAR KAQV 201956Z AUTO VRB05KT 10SM CLR 32/20 A2996 RMK AO2 SLP141
T03170200





000
SAUS44 KSHV 201959 COR
MTRAQV
METAR KAQV 201956Z AUTO VRB05KT 10SM CLR 32/20 A2996 RMK AO2 SLP141
T03170200





000
SAUS44 KSHV 201959 COR
MTRAQV
METAR KAQV 201956Z AUTO VRB05KT 10SM CLR 32/20 A2996 RMK AO2 SLP141
T03170200





000
SAUS44 KSHV 201958 COR
MTRAQV
METAR KAQV 201956Z AUTO VRB05KT 10SM CLR 32/20 A2996 RMK AO2 SLP141
T03170200





000
SAUS44 KSHV 201958 COR
MTRAQV
METAR KAQV 201956Z AUTO VRB05KT 10SM CLR 32/20 A2996 RMK AO2 SLP141
T03170200





000
SAUS44 KSHV 201957
MTRAQV
METAR KAQV 201956Z AUTO VRB05KT 10SM CLR 32/20 A2996 RMK AO2 SLP141
T03170200





000
SAUS44 KSHV 201957
MTRAQV
METAR KAQV 201956Z AUTO VRB05KT 10SM CLR 32/20 A2996 RMK AO2 SLP141
T03170200





000
SAUS44 KSHV 201955
MTRBKB
METAR KBKB 201954Z AUTO VRB03KT 10SM CLR 33/19 A2994 RMK AO2 SLP164
T03280194





000
SAUS44 KSHV 201955
MTRBKB
METAR KBKB 201954Z AUTO VRB03KT 10SM CLR 33/19 A2994 RMK AO2 SLP164
T03280194





000
SAUS44 KSHV 201855
MTRBKB
METAR KBKB 201854Z AUTO 00000KT 10SM BKN045 BKN050 32/21 A2996 RMK
AO2 SLP169 T03220206





000
SAUS44 KSHV 201855
MTRBKB
METAR KBKB 201854Z AUTO 00000KT 10SM BKN045 BKN050 32/21 A2996 RMK
AO2 SLP169 T03220206





000
SAUS44 KSHV 201755
MTRBKB
METAR KBKB 201754Z AUTO VRB03KT 10SM FEW034 32/21 A2997 RMK AO2
SLP175 T03170211 10322 20239 58016





000
SAUS44 KSHV 201755
MTRBKB
METAR KBKB 201754Z AUTO VRB03KT 10SM FEW034 32/21 A2997 RMK AO2
SLP175 T03170211 10322 20239 58016





000
SAUS44 KSHV 201707
MTRAQV
SPECI KAQV 201706Z AUTO VRB03KT 10SM SCT026 SCT032 29/22 A3001 RMK
AO2 T02940217





000
SAUS44 KSHV 201707
MTRAQV
SPECI KAQV 201706Z AUTO VRB03KT 10SM SCT026 SCT032 29/22 A3001 RMK
AO2 T02940217





000
SAUS44 KSHV 201657
MTRAQV
METAR KAQV 201656Z AUTO VRB04KT 10SM BKN025 BKN032 29/22 A3002 RMK
AO2 SLP161 T02890222





000
SAUS44 KSHV 201657
MTRAQV
METAR KAQV 201656Z AUTO VRB04KT 10SM BKN025 BKN032 29/22 A3002 RMK
AO2 SLP161 T02890222





000
SAUS44 KSHV 201655
MTRBKB
METAR KBKB 201654Z AUTO VRB04KT 10SM FEW025 31/22 A3000 RMK AO2
SLP185 T03060217





000
SAUS44 KSHV 201647
MTRAQV
SPECI KAQV 201645Z AUTO 00000KT 10SM BKN023 29/22 A3002 RMK AO2
T02890222





000
SAUS44 KSHV 201647
MTRAQV
SPECI KAQV 201645Z AUTO 00000KT 10SM BKN023 29/22 A3002 RMK AO2
T02890222





000
SAUS44 KSHV 201557
MTRAQV
METAR KAQV 201556Z AUTO 00000KT 7SM FEW025 SCT065 SCT080 26/23 A3004
RMK AO2 RAB28E47 SLP169 P0010 T02560233





000
SAUS44 KSHV 201556
MTRBKB
METAR KBKB 201554Z AUTO 00000KT 10SM SCT024 SCT030 BKN049 30/22
A3002 RMK AO2 SLP191 T03000222





000
SAUS44 KSHV 201551
MTRAQV
SPECI KAQV 201549Z AUTO 00000KT 8SM FEW025 SCT035 BKN055 25/23 A3004
RMK AO2 RAB28E47 P0010 T02500233





000
SAUS44 KSHV 201533
MTRAQV
SPECI KAQV 201532Z AUTO 00000KT 1 1/4SM +RA FEW018 SCT027 BKN034
26/22 A3005 RMK AO2 RAB28 P0008 T02560222





000
SAUS44 KSHV 201529
MTRAQV
SPECI KAQV 201528Z AUTO VRB05KT 9SM -RA FEW018 BKN030 BKN037 27/22
A3004 RMK AO2 RAB28 P0000 T02720222





000
SAUS44 KSHV 201524 COR
MTRAQV
SPECI KAQV 201519Z AUTO VRB03KT 10SM SCT020 BKN028 BKN035 28/22
A3004 RMK AO2 T02780217





000
SAUS44 KSHV 201522 COR
MTRAQV
SPECI KAQV 201519Z AUTO VRB03KT 10SM SCT020 BKN028 BKN035 28/22
A3004 RMK AO2 T02780217





000
SAUS44 KSHV 201522 COR
MTRAQV
SPECI KAQV 201519Z AUTO VRB03KT 10SM SCT020 BKN028 BKN035 28/22
A3004 RMK AO2 T02780217





000
SAUS44 KSHV 201521 COR
MTRAQV
SPECI KAQV 201519Z AUTO VRB03KT 10SM SCT020 BKN028 BKN035 28/22
A3004 RMK AO2 T02780217





000
SAUS44 KSHV 201521
MTRAQV
SPECI KAQV 201519Z AUTO VRB03KT 10SM SCT020 BKN028 BKN035 28/22
A3004 RMK AO2 T02780217





000
SAUS44 KSHV 201521
MTRAQV
SPECI KAQV 201519Z AUTO VRB03KT 10SM SCT020 BKN028 BKN035 28/22
A3004 RMK AO2 T02780217





000
SAUS44 KSHV 201521 COR
MTRAQV
SPECI KAQV 201519Z AUTO VRB03KT 10SM SCT020 BKN028 BKN035 28/22
A3004 RMK AO2 T02780217





000
SAUS44 KSHV 201508
MTRBKB
SPECI KBKB 201507Z AUTO VRB03KT 10SM SCT016 29/22 A3002 RMK AO2
T02890222





000
SAUS44 KSHV 201508
MTRBKB
SPECI KBKB 201507Z AUTO VRB03KT 10SM SCT016 29/22 A3002 RMK AO2
T02890222





000
SAUS44 KSHV 201457
MTRAQV
METAR KAQV 201456Z AUTO VRB03KT 10SM SCT014 SCT019 BKN039 28/22
A3004 RMK AO2 SLP169 T02780222 50014





000
SAUS44 KSHV 201455
MTRAQV
SPECI KAQV 201454Z AUTO VRB04KT 10SM SCT014 SCT019 BKN039 27/22
A3004 RMK AO2





000
SAUS44 KSHV 201455
MTRBKB
METAR KBKB 201454Z AUTO 00000KT 10SM SCT016 BKN023 29/23 A3002 RMK
AO2 SLP192 T02890228 53015





000
SAUS44 KSHV 201455
MTRBKB
METAR KBKB 201454Z AUTO 00000KT 10SM SCT016 BKN023 29/23 A3002 RMK
AO2 SLP192 T02890228 53015





000
SAUS44 KSHV 201455
MTRAQV
SPECI KAQV 201454Z AUTO VRB04KT 10SM SCT014 SCT019 BKN039 27/22
A3004 RMK AO2





000
SAUS44 KSHV 201440
MTRBKB
SPECI KBKB 201439Z AUTO 00000KT 10SM SCT014 28/23 A3002 RMK AO2
T02780228





000
SAUS44 KSHV 201436
MTRAQV
SPECI KAQV 201435Z AUTO 24004KT 10SM FEW009 BKN013 BKN020 27/23
A3004 RMK AO2 T02670228





000
SAUS44 KSHV 201436
MTRAQV
SPECI KAQV 201435Z AUTO 24004KT 10SM FEW009 BKN013 BKN020 27/23
A3004 RMK AO2 T02670228





000
SAUS44 KSHV 201431
MTRAQV
SPECI KAQV 201430Z AUTO VRB04KT 10SM SCT011 BKN015 BKN023 27/23
A3004 RMK AO2 T02670228





000
SAUS44 KSHV 201431
MTRAQV
SPECI KAQV 201430Z AUTO VRB04KT 10SM SCT011 BKN015 BKN023 27/23
A3004 RMK AO2 T02670228





000
SAUS44 KSHV 201423
MTRBKB
SPECI KBKB 201422Z AUTO VRB04KT 10SM SCT010 BKN014 28/23 A3002 RMK
AO2 T02780228





000
SAUS44 KSHV 201423
MTRBKB
SPECI KBKB 201422Z AUTO VRB04KT 10SM SCT010 BKN014 28/23 A3002 RMK
AO2 T02780228





000
SAUS44 KSHV 201357
MTRAQV
METAR KAQV 201356Z AUTO 19004KT 7SM OVC007 26/23 A3003 RMK AO2 CIG
006V012 SLP165 T02560228





000
SAUS44 KSHV 201355
MTRBKB
METAR KBKB 201354Z AUTO VRB03KT 10SM BKN007 BKN012 25/23 A3001 RMK
AO2 CIG 005V010 SLP187 T02500228





000
SAUS44 KSHV 201355
MTRBKB
METAR KBKB 201354Z AUTO VRB03KT 10SM BKN007 BKN012 25/23 A3001 RMK
AO2 CIG 005V010 SLP187 T02500228





000
SAUS44 KSHV 201334
MTRBKB
SPECI KBKB 201332Z AUTO 00000KT 10SM OVC005 25/23 A3000 RMK AO2 CIG
003V010 T02500228





000
SAUS44 KSHV 201330
MTRAQV
SPECI KAQV 201329Z AUTO 00000KT 6SM BR OVC006 24/23 A3001 RMK AO2
CIG 004V010 T02440228





000
SAUS44 KSHV 201303
MTRBKB
SPECI KBKB 201301Z AUTO 00000KT 4SM BR OVC002 24/23 A2999 RMK AO2
T02440228





000
SAUS44 KSHV 201257
MTRAQV
METAR KAQV 201256Z AUTO 18004KT 6SM BR OVC003 24/23 A3000 RMK AO2
SLP155 T02390228





000
SAUS44 KSHV 201255
MTRBKB
METAR KBKB 201254Z AUTO 00000KT 2 1/2SM BR OVC002 24/23 A2999 RMK
AO2 SLP179 T02440228





000
SAUS44 KSHV 201255
MTRBKB
METAR KBKB 201254Z AUTO 00000KT 2 1/2SM BR OVC002 24/23 A2999 RMK
AO2 SLP179 T02440228





000
SAUS44 KSHV 201224
MTRAQV
SPECI KAQV 201223Z AUTO VRB04KT 3SM BR OVC002 23/23 A2999 RMK AO2
T02330228





000
SAUS44 KSHV 201224
MTRAQV
SPECI KAQV 201223Z AUTO VRB04KT 3SM BR OVC002 23/23 A2999 RMK AO2
T02330228





000
SAUS44 KSHV 201157
MTRAQV
METAR KAQV 201156Z AUTO 18004KT 2SM BR OVC002 23/22 A3000 RMK AO2
SLP154 T02330222 10233 20222 53012





000
SAUS44 KSHV 201157
MTRAQV
METAR KAQV 201156Z AUTO 18004KT 2SM BR OVC002 23/22 A3000 RMK AO2
SLP154 T02330222 10233 20222 53012





000
SAUS44 KSHV 201155
MTRBKB
METAR KBKB 201154Z AUTO 00000KT 1/4SM FG VV002 24/22 A2998 RMK AO2
SLP177 T02390222 10239 20222 53012





000
SAUS44 KSHV 201146
MTRAQV
SPECI KAQV 201144Z AUTO VRB03KT 2 1/2SM BR OVC002 23/22 A2999 RMK
AO2 T02330222





000
SAUS44 KSHV 201146
MTRAQV
SPECI KAQV 201144Z AUTO VRB03KT 2 1/2SM BR OVC002 23/22 A2999 RMK
AO2 T02330222





000
SAUS44 KSHV 201129
MTRAQV
SPECI KAQV 201127Z AUTO 00000KT 1 3/4SM BR OVC002 23/22 A2997 RMK
AO2 T02330222





000
SAUS44 KSHV 201057
MTRAQV
METAR KAQV 201056Z AUTO 00000KT 2SM BR OVC002 23/22 A2996 RMK AO2
SLP143 T02330222





000
SAUS44 KSHV 201057
MTRAQV
METAR KAQV 201056Z AUTO 00000KT 2SM BR OVC002 23/22 A2996 RMK AO2
SLP143 T02330222





000
SAUS44 KSHV 201055
MTRBKB
METAR KBKB 201054Z AUTO 00000KT 1/4SM FG VV002 24/22 A2996 RMK AO2
SLP170 T02390217





000
SAUS44 KSHV 201055
MTRBKB
METAR KBKB 201054Z AUTO 00000KT 1/4SM FG VV002 24/22 A2996 RMK AO2
SLP170 T02390217





000
SAUS44 KSHV 201017
MTRAQV
SPECI KAQV 201016Z AUTO 00000KT 2 1/2SM BR OVC003 23/22 A2996 RMK
AO2 T02280222





000
SAUS44 KSHV 201017
MTRAQV
SPECI KAQV 201016Z AUTO 00000KT 2 1/2SM BR OVC003 23/22 A2996 RMK
AO2 T02280222





000
SAUS44 KSHV 201011
MTRBKB
SPECI KBKB 201010Z AUTO 00000KT 3/4SM BR VV002 24/22 A2995 RMK AO2
T02390217





000
SAUS44 KSHV 200957
MTRAQV
METAR KAQV 200956Z AUTO 00000KT 1 1/4SM BR OVC003 23/22 A2996 RMK
AO2 SLP141 T02280217





000
SAUS44 KSHV 200955
MTRBKB
METAR KBKB 200954Z AUTO 00000KT 1 1/2SM BR OVC002 24/22 A2994 RMK
AO2 SLP163 T02390217





000
SAUS44 KSHV 200857
MTRAQV
METAR KAQV 200856Z AUTO 16003KT 3/4SM BR VV002 23/22 A2995 RMK AO2
SLP138 T02280217 55014





000
SAUS44 KSHV 200855
MTRBKB
METAR KBKB 200854Z AUTO 15003KT 2SM BR OVC002 24/22 A2993 RMK AO2
SLP161 T02390217 56018





000
SAUS44 KSHV 200855
MTRBKB
METAR KBKB 200854Z AUTO 15003KT 2SM BR OVC002 24/22 A2993 RMK AO2
SLP161 T02390217 56018





    US Dept of Commerce
    National Oceanic and Atmospheric Administration
    National Weather Service
    1325 East West Highway
    Silver Spring, MD 20910
    Page Author: NWS Internet Services Team
Disclaimer
Information Quality
Credits
Glossary
Privacy Policy
Freedom of Information Act (FOIA)
About Us
Career Opportunities